Time;durP1;ratioP1;P1;durP2;ratioP2;P2;SDS_P1;SDS_P2;PMS_P1;PMS_P2;Temp;Humidity;BMP_temperature;BMP_pressure;BME280_temperature;BME280_humidity;BME280_pressure;Samples;Min_cycle;Max_cycle;Signal;HPM_P1;HPM_P2
2023/08/23 00:00:32;;;;;;;2.40;2.20;;;16.20;99.90;;;;;;5064426;28;20040;-68
2023/08/23 00:02:58;;;;;;;2.83;2.28;;;16.20;99.90;;;;;;5044803;28;20520;-68
2023/08/23 00:05:23;;;;;;;2.05;1.95;;;16.20;99.90;;;;;;5066540;28;20041;-68
2023/08/23 00:07:49;;;;;;;2.53;1.98;;;16.20;99.90;;;;;;5070811;28;20040;-68
2023/08/23 00:10:15;;;;;;;1.95;1.85;;;16.20;99.90;;;;;;5068635;28;20493;-68
2023/08/23 00:12:41;;;;;;;3.25;2.38;;;16.10;99.90;;;;;;5068103;28;20051;-68
2023/08/23 00:15:07;;;;;;;4.00;2.40;;;16.10;99.90;;;;;;5069678;28;20078;-68
2023/08/23 00:17:32;;;;;;;2.92;2.08;;;16.10;99.90;;;;;;5047777;28;20363;-68
2023/08/23 00:19:58;;;;;;;3.53;2.60;;;16.10;99.90;;;;;;5067817;28;20103;-68
2023/08/23 00:22:24;;;;;;;3.67;2.58;;;16.00;99.90;;;;;;5058430;28;20055;-68
2023/08/23 00:24:50;;;;;;;3.47;2.28;;;16.10;99.90;;;;;;5016623;28;20409;-68
2023/08/23 00:27:16;;;;;;;6.45;2.28;;;16.10;99.90;;;;;;5053434;28;20454;-68
2023/08/23 00:29:41;;;;;;;4.78;1.88;;;16.00;99.90;;;;;;5035453;28;20107;-68
2023/08/23 00:32:07;;;;;;;2.47;2.17;;;16.00;99.90;;;;;;5034449;28;20049;-68
2023/08/23 00:34:33;;;;;;;3.58;2.33;;;15.90;99.90;;;;;;5030116;28;20048;-68
2023/08/23 00:36:58;;;;;;;2.47;2.28;;;15.90;99.90;;;;;;5016770;28;20066;-68
2023/08/23 00:39:24;;;;;;;3.20;2.45;;;15.90;99.90;;;;;;5048511;28;20049;-68
2023/08/23 00:41:50;;;;;;;2.22;1.98;;;15.90;99.90;;;;;;5045398;28;20045;-68
2023/08/23 00:44:15;;;;;;;4.15;2.15;;;15.80;99.90;;;;;;5046494;28;20616;-68
2023/08/23 00:46:42;;;;;;;2.88;2.50;;;15.80;99.90;;;;;;5026243;28;20045;-68
2023/08/23 00:49:08;;;;;;;2.45;2.25;;;15.70;99.90;;;;;;5047043;28;20057;-68
2023/08/23 00:51:34;;;;;;;2.85;2.45;;;15.70;99.90;;;;;;5045371;28;20072;-68
2023/08/23 00:54:00;;;;;;;8.20;2.65;;;15.60;99.90;;;;;;5045895;28;20052;-68
2023/08/23 00:56:27;;;;;;;2.38;2.17;;;15.60;99.90;;;;;;5046291;28;20044;-68
2023/08/23 00:58:53;;;;;;;4.97;2.78;;;15.60;99.90;;;;;;5026541;28;20045;-68
2023/08/23 01:01:18;;;;;;;7.05;2.25;;;15.60;99.90;;;;;;5046146;28;20098;-69
2023/08/23 01:03:44;;;;;;;5.80;2.70;;;15.60;99.90;;;;;;5047954;28;20041;-68
2023/08/23 01:06:34;;;;;;;4.00;2.55;;;15.60;99.90;;;;;;5046383;28;20080;-68
2023/08/23 01:09:31;;;;;;;4.53;2.60;;;15.60;99.90;;;;;;5054711;28;20685;-68
2023/08/23 01:12:14;;;;;;;5.05;2.97;;;15.50;99.90;;;;;;5022640;28;20052;-69
2023/08/23 01:14:49;;;;;;;2.53;2.35;;;15.50;99.90;;;;;;5034157;28;20364;-68
2023/08/23 01:17:18;;;;;;;3.28;2.55;;;15.50;99.90;;;;;;5048832;28;20040;-69
2023/08/23 01:19:48;;;;;;;;;;;15.40;99.90;;;;;;5016783;28;20045;-69
2023/08/23 01:22:18;;;;;;;4.05;2.75;;;15.40;99.90;;;;;;5017475;28;19921;-69
2023/08/23 01:24:44;;;;;;;2.40;2.20;;;15.40;99.90;;;;;;5047698;28;20564;-69
2023/08/23 01:27:10;;;;;;;3.78;2.40;;;15.30;99.90;;;;;;5035154;28;20132;-69
2023/08/23 01:29:36;;;;;;;2.72;2.22;;;15.40;99.90;;;;;;5067616;28;20033;-69
2023/08/23 01:32:21;;;;;;;2.13;1.75;;;15.30;99.90;;;;;;5067681;28;20131;-69
2023/08/23 01:34:52;;;;;;;2.17;1.52;;;15.30;99.90;;;;;;5049652;28;20127;-69
2023/08/23 01:37:22;;;;;;;1.80;1.45;;;15.20;99.90;;;;;;5068532;28;20055;-69
2023/08/23 01:39:51;;;;;;;1.67;1.33;;;15.20;99.90;;;;;;5067228;28;20657;-69
2023/08/23 01:42:16;;;;;;;2.33;1.70;;;15.20;99.90;;;;;;5067730;28;20048;-69
2023/08/23 01:44:43;;;;;;;1.58;1.48;;;15.10;99.90;;;;;;5067579;28;20048;-69
2023/08/23 01:47:09;;;;;;;2.53;1.50;;;15.00;99.90;;;;;;5082692;28;20170;-70
2023/08/23 01:49:34;;;;;;;1.92;1.50;;;15.00;99.90;;;;;;5067861;28;20486;-69
2023/08/23 01:52:00;;;;;;;1.70;1.60;;;15.00;99.90;;;;;;5067076;28;20102;-69
2023/08/23 01:54:26;;;;;;;1.27;1.27;;;14.90;99.90;;;;;;5067982;28;20056;-69
2023/08/23 01:56:52;;;;;;;2.05;1.20;;;14.90;99.90;;;;;;5066401;28;20282;-69
2023/08/23 01:59:17;;;;;;;5.65;1.23;;;14.90;99.90;;;;;;5067741;28;20051;-69
2023/08/23 02:01:43;;;;;;;13.02;0.93;;;14.90;99.90;;;;;;5066970;28;20044;-69
2023/08/23 02:04:09;;;;;;;3.95;1.08;;;14.90;99.90;;;;;;5067187;28;20057;-69
2023/08/23 02:06:34;;;;;;;1.15;1.15;;;14.90;99.90;;;;;;5067139;28;20044;-69
2023/08/23 02:09:00;;;;;;;6.88;1.15;;;14.90;99.90;;;;;;5075079;28;20041;-69
2023/08/23 02:11:26;;;;;;;22.23;1.40;;;14.90;99.90;;;;;;5037017;28;20550;-69
2023/08/23 02:13:51;;;;;;;2.10;1.27;;;14.90;99.90;;;;;;5048878;28;20052;-69
2023/08/23 02:16:17;;;;;;;1.67;1.58;;;14.90;99.90;;;;;;5049516;28;20512;-69
2023/08/23 02:18:43;;;;;;;11.80;1.67;;;14.90;99.90;;;;;;5066630;28;20101;-69
2023/08/23 02:21:08;;;;;;;3.65;2.03;;;14.90;99.90;;;;;;5067161;28;20139;-69
2023/08/23 02:23:34;;;;;;;14.38;1.60;;;14.90;99.90;;;;;;5067303;28;20466;-69
2023/08/23 02:26:00;;;;;;;2.75;1.80;;;14.90;99.90;;;;;;5049009;28;20055;-68
2023/08/23 02:28:26;;;;;;;2.30;2.10;;;14.80;99.90;;;;;;5066469;28;20053;-69
2023/08/23 02:30:51;;;;;;;2.47;2.20;;;14.80;99.90;;;;;;5066396;28;20089;-69
2023/08/23 02:33:18;;;;;;;2.25;1.95;;;14.70;99.90;;;;;;5066827;28;20045;-69
2023/08/23 02:35:44;;;;;;;5.90;2.03;;;14.70;99.90;;;;;;5067076;28;20048;-69
2023/08/23 02:38:10;;;;;;;7.53;1.70;;;14.70;99.90;;;;;;5066765;28;20115;-69
2023/08/23 02:40:41;;;;;;;15.50;2.30;;;14.70;99.90;;;;;;5066240;28;20049;-69
2023/08/23 02:43:07;;;;;;;7.47;2.05;;;14.70;99.90;;;;;;5066252;28;20052;-69
2023/08/23 02:45:32;;;;;;;3.42;2.90;;;14.70;99.90;;;;;;5066765;28;20047;-69
2023/08/23 02:47:58;;;;;;;7.15;2.60;;;14.70;99.90;;;;;;5048208;28;21089;-69
2023/08/23 02:50:24;;;;;;;60.78;2.97;;;14.70;99.90;;;;;;5066629;28;20052;-69
2023/08/23 02:52:49;;;;;;;38.88;3.28;;;14.80;99.90;;;;;;5066519;28;20052;-69
2023/08/23 02:55:15;;;;;;;60.25;3.20;;;14.80;99.90;;;;;;5048851;28;20033;-69
2023/08/23 02:57:41;;;;;;;31.83;3.50;;;14.80;99.90;;;;;;5081375;28;20052;-69
2023/08/23 03:00:07;;;;;;;25.83;3.22;;;14.90;99.90;;;;;;5082108;28;20541;-70
2023/08/23 03:02:33;;;;;;;14.32;3.30;;;14.80;99.90;;;;;;5048741;28;20443;-69
2023/08/23 03:04:59;;;;;;;38.80;3.50;;;14.90;99.90;;;;;;5065648;28;20543;-69
2023/08/23 03:07:24;;;;;;;16.73;3.28;;;14.90;99.90;;;;;;5068782;28;20040;-69
2023/08/23 03:09:50;;;;;;;9.98;3.80;;;14.90;99.90;;;;;;5065066;28;20044;-69
2023/08/23 03:12:16;;;;;;;6.00;4.13;;;14.80;99.90;;;;;;5042554;28;20080;-69
2023/08/23 03:14:42;;;;;;;4.93;4.20;;;14.80;99.90;;;;;;5066012;28;20137;-69
2023/08/23 03:17:07;;;;;;;7.15;4.10;;;14.90;99.90;;;;;;5066547;28;20049;-69
2023/08/23 03:19:33;;;;;;;4.60;3.97;;;14.80;99.90;;;;;;5047833;28;20375;-69
2023/08/23 03:21:59;;;;;;;6.65;4.10;;;14.80;99.90;;;;;;5066194;28;20084;-69
2023/08/23 03:24:24;;;;;;;18.45;3.90;;;14.80;99.90;;;;;;5066137;28;20048;-69
2023/08/23 03:26:50;;;;;;;14.55;4.22;;;14.80;99.90;;;;;;5065819;28;20060;-69
2023/08/23 03:29:15;;;;;;;14.20;5.43;;;14.80;99.90;;;;;;5065651;28;20120;-69
2023/08/23 03:31:41;;;;;;;17.80;4.13;;;14.80;99.90;;;;;;5066263;28;20068;-69
2023/08/23 03:34:08;;;;;;;25.55;3.72;;;14.90;99.90;;;;;;5066113;28;20074;-69
2023/08/23 03:36:33;;;;;;;14.93;3.88;;;14.80;99.90;;;;;;5067515;28;20072;-69
2023/08/23 03:38:59;;;;;;;11.02;3.40;;;14.90;99.90;;;;;;5070518;28;20486;-69
2023/08/23 03:41:25;;;;;;;7.93;2.95;;;14.90;99.90;;;;;;5051965;28;20048;-69
2023/08/23 03:43:50;;;;;;;10.35;2.78;;;15.00;99.90;;;;;;5069964;28;20052;-69
2023/08/23 03:46:17;;;;;;;3.28;2.30;;;15.00;99.90;;;;;;5051436;28;20417;-69
2023/08/23 03:48:42;;;;;;;2.22;2.05;;;15.00;99.90;;;;;;5070161;28;20029;-68
2023/08/23 03:51:08;;;;;;;8.85;2.35;;;15.10;99.90;;;;;;5070269;28;20044;-69
2023/08/23 03:53:34;;;;;;;4.72;2.08;;;15.00;99.90;;;;;;5069576;28;20127;-69
2023/08/23 03:55:59;;;;;;;3.05;1.88;;;15.00;99.90;;;;;;5052252;28;20109;-69
2023/08/23 03:58:25;;;;;;;1.90;1.80;;;15.00;99.90;;;;;;5068509;28;20064;-68
2023/08/23 04:00:54;;;;;;;4.40;2.20;;;15.00;99.90;;;;;;5051915;28;20485;-69
2023/08/23 04:03:20;;;;;;;2.40;2.15;;;14.90;99.90;;;;;;5051310;28;20052;-69
2023/08/23 04:05:45;;;;;;;2.95;2.40;;;14.90;99.90;;;;;;5069544;28;20043;-69
2023/08/23 04:08:11;;;;;;;2.60;2.40;;;14.90;99.90;;;;;;5078387;28;20051;-69
2023/08/23 04:10:37;;;;;;;2.33;2.13;;;14.90;99.90;;;;;;5055865;28;20037;-69
2023/08/23 04:13:03;;;;;;;2.40;2.20;;;14.90;99.90;;;;;;5070112;28;20072;-69
2023/08/23 04:15:29;;;;;;;3.40;2.50;;;14.90;99.90;;;;;;5072480;28;20036;-69
2023/08/23 04:17:55;;;;;;;2.85;2.72;;;14.90;99.90;;;;;;5070796;28;20041;-68
2023/08/23 04:20:21;;;;;;;5.05;2.85;;;14.90;99.90;;;;;;5068639;28;20040;-69
2023/08/23 04:22:46;;;;;;;3.10;2.80;;;15.00;99.90;;;;;;5069273;28;20483;-69
2023/08/23 04:25:12;;;;;;;3.72;3.08;;;14.90;99.90;;;;;;5051007;28;20072;-68
2023/08/23 04:27:38;;;;;;;3.80;3.28;;;14.90;99.90;;;;;;5068897;28;20063;-68
2023/08/23 04:30:06;;;;;;;9.07;3.03;;;15.00;99.90;;;;;;5051442;28;20055;-68
2023/08/23 04:32:32;;;;;;;22.00;3.05;;;15.00;99.90;;;;;;5068387;28;20048;-68
2023/08/23 04:34:58;;;;;;;11.13;3.10;;;15.00;99.90;;;;;;5069597;28;20055;-68
2023/08/23 04:37:24;;;;;;;10.88;3.20;;;14.90;99.90;;;;;;5068508;28;20044;-67
2023/08/23 04:39:49;;;;;;;7.13;3.35;;;15.00;99.90;;;;;;5051106;28;20046;-69
2023/08/23 04:42:15;;;;;;;9.45;2.97;;;14.90;99.90;;;;;;5050515;28;20079;-69
2023/08/23 04:44:41;;;;;;;3.60;3.30;;;15.00;99.90;;;;;;5068997;28;20036;-69
2023/08/23 04:47:06;;;;;;;3.90;3.55;;;15.00;99.90;;;;;;5051098;28;20182;-69
2023/08/23 04:49:32;;;;;;;4.00;3.65;;;15.00;99.90;;;;;;5068127;28;20052;-69
2023/08/23 04:51:58;;;;;;;3.78;3.38;;;15.00;99.90;;;;;;5084518;28;20053;-68
2023/08/23 04:54:24;;;;;;;4.18;3.80;;;15.00;99.90;;;;;;5068309;28;20094;-69
2023/08/23 04:56:50;;;;;;;4.55;3.58;;;15.10;99.90;;;;;;5069335;28;20397;-69
2023/08/23 04:59:15;;;;;;;3.88;3.58;;;15.10;99.90;;;;;;5068115;28;20033;-69
2023/08/23 05:01:41;;;;;;;4.43;4.13;;;15.10;99.90;;;;;;5068167;28;20086;-69
2023/08/23 05:04:07;;;;;;;4.10;3.55;;;15.10;99.90;;;;;;5068849;28;20053;-69
2023/08/23 05:06:34;;;;;;;6.22;3.78;;;15.20;99.90;;;;;;5068260;28;20426;-69
2023/08/23 05:09:00;;;;;;;4.10;3.90;;;15.20;99.90;;;;;;5092521;28;20032;-69
2023/08/23 05:11:26;;;;;;;5.40;4.10;;;15.30;99.90;;;;;;5055505;28;20059;-69
2023/08/23 05:13:52;;;;;;;5.10;4.18;;;15.30;99.90;;;;;;5068878;28;20079;-69
2023/08/23 05:16:17;;;;;;;6.45;4.05;;;15.30;99.90;;;;;;5067079;28;20051;-69
2023/08/23 05:18:43;;;;;;;4.32;3.92;;;15.40;99.90;;;;;;5068966;28;20060;-69
2023/08/23 05:21:09;;;;;;;5.20;3.88;;;15.40;99.90;;;;;;5068323;28;20089;-69
2023/08/23 05:23:35;;;;;;;6.05;4.25;;;15.50;99.90;;;;;;5068527;28;20047;-68
2023/08/23 05:26:02;;;;;;;5.57;4.03;;;15.60;99.90;;;;;;5068165;28;20080;-69
2023/08/23 05:28:28;;;;;;;5.20;4.00;;;15.60;99.90;;;;;;5067361;28;20057;-69
2023/08/23 05:30:54;;;;;;;10.98;3.97;;;15.60;99.90;;;;;;5068262;28;20406;-69
2023/08/23 05:33:20;;;;;;;7.03;3.80;;;15.70;99.90;;;;;;5053720;28;20036;-69
2023/08/23 05:35:46;;;;;;;5.55;3.75;;;15.80;99.90;;;;;;5084131;28;20368;-69
2023/08/23 05:38:12;;;;;;;6.55;4.38;;;15.90;99.90;;;;;;5050001;28;20075;-69
2023/08/23 05:40:39;;;;;;;4.53;4.00;;;15.90;99.90;;;;;;5049762;28;20505;-69
2023/08/23 05:43:06;;;;;;;4.78;4.30;;;15.90;99.90;;;;;;5049763;28;20060;-69
2023/08/23 05:45:31;;;;;;;6.15;4.00;;;16.00;99.90;;;;;;5050364;28;20111;-68
2023/08/23 05:47:59;;;;;;;4.55;3.83;;;16.00;99.90;;;;;;5068287;28;20074;-69
2023/08/23 05:50:25;;;;;;;4.53;3.90;;;16.00;99.90;;;;;;5043338;28;20044;-69
2023/08/23 05:52:50;;;;;;;5.63;3.95;;;16.10;99.90;;;;;;5068505;28;20414;-68
2023/08/23 05:55:16;;;;;;;8.85;4.53;;;16.10;99.90;;;;;;5067448;28;20036;-69
2023/08/23 05:57:42;;;;;;;10.88;4.93;;;16.10;99.90;;;;;;5067764;28;20037;-68
2023/08/23 06:00:09;;;;;;;7.55;4.47;;;16.20;99.90;;;;;;5067340;28;20055;-68
2023/08/23 06:02:35;;;;;;;7.43;4.43;;;16.20;99.90;;;;;;5045180;28;20483;-68
2023/08/23 06:05:03;;;;;;;9.15;4.50;;;16.30;99.90;;;;;;5060543;28;20037;-68
2023/08/23 06:07:29;;;;;;;5.28;3.97;;;16.40;99.90;;;;;;5067372;28;20098;-68
2023/08/23 06:09:55;;;;;;;10.02;4.50;;;16.50;99.90;;;;;;5054080;28;20041;-69
2023/08/23 06:12:24;;;;;;;8.43;4.90;;;16.50;99.90;;;;;;5052408;28;20391;-68
2023/08/23 06:14:49;;;;;;;15.43;5.50;;;16.60;99.90;;;;;;5055175;28;20051;-68
2023/08/23 06:17:16;;;;;;;9.35;5.45;;;16.80;99.90;;;;;;5061735;28;20048;-68
2023/08/23 06:19:42;;;;;;;11.80;6.38;;;16.90;99.90;;;;;;5054369;28;20139;-68
2023/08/23 06:22:08;;;;;;;16.05;6.43;;;16.80;99.90;;;;;;5045669;28;20132;-68
2023/08/23 06:24:35;;;;;;;10.15;6.22;;;17.00;99.90;;;;;;5046510;28;20097;-68
2023/08/23 06:27:01;;;;;;;9.85;5.85;;;17.10;99.90;;;;;;5035978;28;20052;-68
2023/08/23 06:29:27;;;;;;;13.27;6.15;;;17.10;99.90;;;;;;5055991;28;20142;-68
2023/08/23 06:31:53;;;;;;;17.15;6.65;;;17.20;99.90;;;;;;5035852;28;20574;-68
2023/08/23 06:34:19;;;;;;;11.27;6.90;;;17.20;99.90;;;;;;5050845;28;20150;-68
2023/08/23 06:36:44;;;;;;;11.75;6.60;;;17.30;99.90;;;;;;5060623;28;20040;-68
2023/08/23 06:39:10;;;;;;;15.45;6.68;;;17.40;99.90;;;;;;5054808;28;20491;-67
2023/08/23 06:41:37;;;;;;;10.82;7.15;;;17.50;99.90;;;;;;5035952;28;20048;-67
2023/08/23 06:44:03;;;;;;;13.43;7.30;;;17.60;99.90;;;;;;5051038;28;20095;-67
2023/08/23 06:46:29;;;;;;;12.82;6.68;;;17.70;99.90;;;;;;5061693;28;20505;-68
2023/08/23 06:48:56;;;;;;;12.20;7.88;;;17.80;99.90;;;;;;5056551;28;20112;-67
2023/08/23 06:51:22;;;;;;;17.48;7.20;;;17.80;99.90;;;;;;5038257;28;20045;-66
2023/08/23 06:53:50;;;;;;;10.25;6.63;;;17.90;99.90;;;;;;5053488;28;20094;-67
2023/08/23 06:56:15;;;;;;;12.95;7.25;;;17.90;99.90;;;;;;5032985;28;20084;-68
2023/08/23 06:58:41;;;;;;;19.33;8.20;;;17.90;99.90;;;;;;5054619;28;20099;-67
2023/08/23 07:01:14;;;;;;;9.90;6.28;;;17.90;99.90;;;;;;5069294;28;20083;-68
2023/08/23 07:03:41;;;;;;;10.85;7.68;;;17.90;99.90;;;;;;5055498;28;20049;-67
2023/08/23 07:06:07;;;;;;;14.23;7.78;;;18.10;99.90;;;;;;5055431;28;20048;-67
2023/08/23 07:08:32;;;;;;;13.43;7.65;;;18.20;99.90;;;;;;5050948;28;20478;-68
2023/08/23 07:10:58;;;;;;;18.75;8.65;;;18.50;99.90;;;;;;5051921;28;20063;-68
2023/08/23 07:13:24;;;;;;;19.55;9.38;;;18.70;99.90;;;;;;5048229;28;20049;-67
2023/08/23 07:15:49;;;;;;;14.20;8.48;;;18.90;99.90;;;;;;5065993;28;20097;-68
2023/08/23 07:18:15;;;;;;;10.13;7.63;;;19.20;99.90;;;;;;5066303;28;20033;-67
2023/08/23 07:20:41;;;;;;;11.48;7.70;;;19.40;99.90;;;;;;5066811;28;20108;-67
2023/08/23 07:23:07;;;;;;;15.75;8.82;;;19.60;99.90;;;;;;5046018;28;20493;-68
2023/08/23 07:25:32;;;;;;;11.02;7.63;;;19.80;99.90;;;;;;5024263;28;20033;-68
2023/08/23 07:27:58;;;;;;;13.68;7.45;;;20.10;99.90;;;;;;5036212;28;20132;-68
2023/08/23 07:30:24;;;;;;;10.10;7.28;;;20.30;99.90;;;;;;5055929;28;20044;-67
2023/08/23 07:32:50;;;;;;;10.85;7.30;;;20.60;99.90;;;;;;5057247;28;20178;-68
2023/08/23 07:35:15;;;;;;;11.25;7.00;;;20.80;99.90;;;;;;5055397;28;20495;-67
2023/08/23 07:37:41;;;;;;;15.95;7.03;;;20.90;99.90;;;;;;5051258;28;20033;-68
2023/08/23 07:40:09;;;;;;;10.88;6.70;;;21.10;99.90;;;;;;5047456;28;20043;-68
2023/08/23 07:42:35;;;;;;;10.80;6.93;;;21.40;99.90;;;;;;5067990;28;20036;-67
2023/08/23 07:45:01;;;;;;;9.20;6.38;;;21.50;99.90;;;;;;5039347;28;21607;-68
2023/08/23 07:47:26;;;;;;;8.20;6.50;;;21.70;99.90;;;;;;5059338;28;20044;-68
2023/08/23 07:49:52;;;;;;;10.95;6.22;;;21.80;99.90;;;;;;5036415;28;20095;-67
2023/08/23 07:52:18;;;;;;;7.25;6.25;;;22.00;99.90;;;;;;5057081;28;20040;-68
2023/08/23 07:54:43;;;;;;;9.23;6.60;;;22.10;99.90;;;;;;5041958;28;20516;-68
2023/08/23 07:57:09;;;;;;;11.45;6.30;;;22.30;99.90;;;;;;5064394;28;20036;-68
2023/08/23 07:59:35;;;;;;;6.53;5.43;;;22.40;99.90;;;;;;5056596;28;20048;-68
2023/08/23 08:02:00;;;;;;;6.97;5.15;;;22.50;99.90;;;;;;5055307;28;20711;-68
2023/08/23 08:04:29;;;;;;;8.75;5.47;;;22.60;99.90;;;;;;5039464;28;20040;-68
2023/08/23 08:06:56;;;;;;;7.25;5.90;;;22.70;99.90;;;;;;5032695;28;20045;-68
2023/08/23 08:09:22;;;;;;;5.93;4.70;;;22.90;99.90;;;;;;5053728;28;20049;-68
2023/08/23 08:11:48;;;;;;;7.45;5.22;;;23.00;99.90;;;;;;5060429;28;20136;-69
2023/08/23 08:14:13;;;;;;;9.02;4.70;;;23.20;97.50;;;;;;5063382;28;20044;-71
2023/08/23 08:16:39;;;;;;;5.88;4.68;;;23.30;98.60;;;;;;5063732;28;20044;-70
2023/08/23 08:19:05;;;;;;;8.18;4.53;;;23.30;96.20;;;;;;5057421;28;20072;-70
2023/08/23 08:21:31;;;;;;;10.15;5.38;;;23.40;95.40;;;;;;5061647;28;20426;-70
2023/08/23 08:23:58;;;;;;;6.18;5.00;;;23.60;95.30;;;;;;5053768;28;20051;-70
2023/08/23 08:26:24;;;;;;;8.50;4.43;;;23.70;93.50;;;;;;5046597;28;20048;-70
2023/08/23 08:28:50;;;;;;;5.55;4.97;;;23.90;89.80;;;;;;5066849;28;20052;-69
2023/08/23 08:31:16;;;;;;;6.95;4.43;;;24.00;89.00;;;;;;5045478;28;20060;-70
2023/08/23 08:33:42;;;;;;;6.60;4.60;;;24.00;84.10;;;;;;5068584;28;20406;-70
2023/08/23 08:36:08;;;;;;;6.70;4.85;;;23.80;74.00;;;;;;5061107;28;20045;-70
2023/08/23 08:38:34;;;;;;;8.50;4.13;;;23.70;71.50;;;;;;5017522;28;20039;-70
2023/08/23 08:41:00;;;;;;;6.30;3.70;;;23.50;64.20;;;;;;5067946;28;20318;-71
2023/08/23 08:43:26;;;;;;;5.00;4.03;;;23.40;67.10;;;;;;5065096;28;20060;-70
2023/08/23 08:45:52;;;;;;;4.82;3.75;;;23.40;72.30;;;;;;5046036;28;20482;-69
2023/08/23 08:48:18;;;;;;;5.22;3.78;;;23.20;72.20;;;;;;5043225;28;20043;-70
2023/08/23 08:50:44;;;;;;;5.40;4.07;;;23.20;68.70;;;;;;5062250;28;20464;-70
2023/08/23 08:53:15;;;;;;;4.60;3.67;;;23.20;64.90;;;;;;5043888;28;20052;-70
2023/08/23 08:55:43;;;;;;;5.00;3.25;;;23.40;68.90;;;;;;5044294;28;20076;-71
2023/08/23 08:58:10;;;;;;;6.53;3.33;;;23.40;67.00;;;;;;5062911;28;20115;-71
2023/08/23 09:00:37;;;;;;;3.90;3.20;;;23.40;60.30;;;;;;5044133;28;20063;-70
2023/08/23 09:03:04;;;;;;;3.53;3.03;;;23.40;61.20;;;;;;5059735;28;20132;-71
2023/08/23 09:05:31;;;;;;;3.92;3.05;;;23.50;54.90;;;;;;5063934;28;20048;-71
2023/08/23 09:07:57;;;;;;;2.20;2.10;;;23.70;54.70;;;;;;5056253;28;20040;-71
2023/08/23 09:10:24;;;;;;;2.60;2.33;;;23.80;37.50;;;;;;5054612;28;20125;-71
2023/08/23 09:12:50;;;;;;;4.50;2.40;;;23.90;40.50;;;;;;5067223;28;20071;-71
2023/08/23 09:15:23;;;;;;;3.40;2.47;;;24.10;39.00;;;;;;5049979;28;20040;-71
2023/08/23 09:17:52;;;;;;;2.65;2.45;;;24.20;37.80;;;;;;5067681;28;20044;-71
2023/08/23 09:20:20;;;;;;;4.22;2.42;;;24.20;27.30;;;;;;5068344;28;20410;-71
2023/08/23 09:22:51;;;;;;;4.40;2.63;;;24.20;25.60;;;;;;5067529;28;20041;-72
2023/08/23 09:25:17;;;;;;;6.72;2.58;;;24.10;7.80;;;;;;5067927;28;20446;-71
2023/08/23 09:27:43;;;;;;;6.10;2.22;;;24.20;18.30;;;;;;5048016;28;20418;-72
2023/08/23 09:30:11;;;;;;;4.60;2.70;;;24.20;29.30;;;;;;5051893;28;20060;-70
2023/08/23 09:32:37;;;;;;;4.88;1.98;;;24.40;24.40;;;;;;5057115;28;20529;-71
2023/08/23 09:35:13;;;;;;;2.13;1.55;;;24.40;17.40;;;;;;5046301;28;20053;-71
2023/08/23 09:37:46;;;;;;;3.00;1.80;;;24.40;1.00;;;;;;5033854;28;20052;-71
2023/08/23 09:40:28;;;;;;;2.22;2.10;;;24.20;4.60;;;;;;5057097;28;20040;-71
2023/08/23 09:42:54;;;;;;;3.42;1.95;;;24.40;12.40;;;;;;5048486;28;20206;-70
2023/08/23 09:45:22;;;;;;;1.90;1.80;;;24.30;10.70;;;;;;5055014;28;20105;-71
2023/08/23 09:47:55;;;;;;;1.98;1.67;;;24.20;2.30;;;;;;5049702;28;20121;-70
2023/08/23 09:50:23;;;;;;;1.75;1.50;;;24.10;4.40;;;;;;5064857;28;20480;-71
2023/08/23 09:52:59;;;;;;;2.50;1.50;;;24.00;6.70;;;;;;5047779;28;20102;-71
2023/08/23 09:55:25;;;;;;;3.08;1.25;;;23.90;7.70;;;;;;5047072;28;20044;-70
2023/08/23 09:57:55;;;;;;;2.45;1.48;;;23.70;1.00;;;;;;5052491;28;20123;-71
2023/08/23 10:00:22;;;;;;;2.92;1.40;;;23.80;7.90;;;;;;5064461;28;20504;-71
2023/08/23 10:02:48;;;;;;;1.75;1.48;;;23.90;14.70;;;;;;5064604;28;20036;-70
2023/08/23 10:05:14;;;;;;;1.90;1.50;;;23.80;1.00;;;;;;5063828;28;20036;-71
2023/08/23 10:07:40;;;;;;;4.00;1.40;;;23.70;1.00;;;;;;5063701;28;20383;-71
2023/08/23 10:10:07;;;;;;;2.22;1.40;;;23.60;1.00;;;;;;5037507;28;20372;-71
2023/08/23 10:12:42;;;;;;;2.90;1.20;;;23.50;2.10;;;;;;5064693;28;20044;-71
2023/08/23 10:15:10;;;;;;;2.80;1.50;;;23.50;5.40;;;;;;5049109;28;20057;-71
2023/08/23 10:17:37;;;;;;;4.82;1.83;;;23.40;1.00;;;;;;5082252;28;20052;-71
2023/08/23 10:20:08;;;;;;;5.03;1.20;;;23.20;4.50;;;;;;5066505;28;20044;-71
2023/08/23 10:22:34;;;;;;;3.03;1.98;;;23.40;7.30;;;;;;5064280;28;20049;-71
2023/08/23 10:25:00;;;;;;;2.17;1.42;;;23.40;5.90;;;;;;5043039;28;20390;-71
2023/08/23 10:27:26;;;;;;;3.25;1.40;;;23.60;6.60;;;;;;5064427;28;20056;-71
2023/08/23 10:29:52;;;;;;;3.13;1.10;;;23.70;5.00;;;;;;5066133;28;20051;-70
2023/08/23 10:32:18;;;;;;;1.70;1.60;;;23.80;9.40;;;;;;5051309;28;20037;-71
2023/08/23 10:34:44;;;;;;;4.00;1.45;;;24.10;7.20;;;;;;5046858;28;20041;-71
2023/08/23 10:37:14;;;;;;;2.50;1.60;;;24.40;12.20;;;;;;5059018;28;20370;-71
2023/08/23 10:39:49;;;;;;;1.80;1.70;;;24.70;1.00;;;;;;5060087;28;20075;-70
2023/08/23 10:42:20;;;;;;;3.35;1.63;;;24.70;1.00;;;;;;5061066;28;20063;-71
2023/08/23 10:45:06;;;;;;;3.65;1.80;;;24.80;1.00;;;;;;5051318;28;20123;-70
2023/08/23 10:47:36;;;;;;;6.03;1.50;;;24.90;1.00;;;;;;5027818;28;20537;-72
2023/08/23 10:50:06;;;;;;;5.10;1.85;;;25.00;1.00;;;;;;5057784;28;20052;-68
2023/08/23 10:52:32;;;;;;;4.63;1.80;;;25.30;1.00;;;;;;5057144;28;20154;-68
2023/08/23 10:54:59;;;;;;;3.10;1.70;;;25.40;1.00;;;;;;5059366;28;20415;-67
2023/08/23 10:57:25;;;;;;;2.10;1.75;;;25.40;1.00;;;;;;5034828;28;20614;-68
2023/08/23 10:59:50;;;;;;;3.63;2.30;;;25.30;1.00;;;;;;5057543;28;20164;-68
2023/08/23 11:02:16;;;;;;;3.10;2.10;;;25.20;1.00;;;;;;5065411;28;20036;-68
2023/08/23 11:04:42;;;;;;;3.20;1.70;;;25.10;1.00;;;;;;5046786;28;20048;-67
2023/08/23 11:07:09;;;;;;;1.98;1.88;;;25.00;1.00;;;;;;5062875;28;20040;-68
2023/08/23 11:09:35;;;;;;;4.03;1.90;;;25.10;1.00;;;;;;5052396;28;20110;-68
2023/08/23 11:12:04;;;;;;;3.58;2.20;;;25.20;1.00;;;;;;5040320;28;20071;-69
2023/08/23 11:14:30;;;;;;;6.00;2.42;;;25.30;1.00;;;;;;5049317;28;20149;-68
2023/08/23 11:16:56;;;;;;;5.05;2.10;;;25.20;1.00;;;;;;5055140;28;20403;-68
2023/08/23 11:19:22;;;;;;;4.05;2.03;;;25.20;1.00;;;;;;5046039;28;20377;-68
2023/08/23 11:21:49;;;;;;;6.78;2.20;;;25.20;1.00;;;;;;5059757;28;20074;-69
2023/08/23 11:24:14;;;;;;;4.70;2.53;;;25.10;1.00;;;;;;5064644;28;20482;-68
2023/08/23 11:26:40;;;;;;;4.15;1.83;;;25.10;1.00;;;;;;5057936;28;20537;-68
2023/08/23 11:29:07;;;;;;;1.95;1.77;;;25.20;1.00;;;;;;5027444;28;20057;-68
2023/08/23 11:31:33;;;;;;;4.22;2.28;;;25.10;1.00;;;;;;5056925;28;20052;-68
2023/08/23 11:34:07;;;;;;;4.90;2.33;;;25.10;1.00;;;;;;5074329;28;20083;-68
2023/08/23 11:36:34;;;;;;;2.67;1.80;;;25.30;1.00;;;;;;5063882;28;20660;-68
2023/08/23 11:39:03;;;;;;;4.57;1.70;;;25.50;1.00;;;;;;5029685;28;20048;-67
2023/08/23 11:41:31;;;;;;;3.22;2.10;;;25.70;1.00;;;;;;5033125;28;20041;-68
2023/08/23 11:43:56;;;;;;;4.93;1.60;;;25.90;1.00;;;;;;5055611;28;20036;-67
2023/08/23 11:46:22;;;;;;;6.97;2.17;;;26.10;1.00;;;;;;5066360;28;20071;-67
2023/08/23 11:48:48;;;;;;;3.50;2.03;;;26.20;1.00;;;;;;5065546;28;20040;-68
2023/08/23 11:51:14;;;;;;;4.88;1.90;;;26.30;1.00;;;;;;5065599;28;20511;-67
2023/08/23 11:53:56;;;;;;;2.97;1.52;;;26.30;1.00;;;;;;5052891;28;20072;-68
2023/08/23 11:56:22;;;;;;;5.05;1.70;;;26.30;1.00;;;;;;5044513;28;20049;-67
2023/08/23 11:58:48;;;;;;;2.55;1.50;;;26.40;1.00;;;;;;5068836;28;20486;-68
2023/08/23 12:01:15;;;;;;;2.35;1.45;;;26.50;1.00;;;;;;5050853;28;20214;-68
2023/08/23 12:03:41;;;;;;;3.75;1.55;;;26.50;1.00;;;;;;5063314;28;20082;-68
2023/08/23 12:06:07;;;;;;;5.45;1.55;;;26.50;1.00;;;;;;5050382;28;20115;-68
2023/08/23 12:08:34;;;;;;;6.82;1.60;;;26.60;1.00;;;;;;5058887;28;20487;-68
2023/08/23 12:11:00;;;;;;;3.08;1.63;;;26.70;1.00;;;;;;5053702;28;20045;-68
2023/08/23 12:13:26;;;;;;;2.95;1.63;;;26.80;1.00;;;;;;5068476;28;20051;-68
2023/08/23 12:15:52;;;;;;;1.65;1.25;;;26.90;1.00;;;;;;5070506;28;20409;-67
2023/08/23 12:18:17;;;;;;;3.35;1.83;;;26.80;1.00;;;;;;5059711;28;20165;-68
2023/08/23 12:20:45;;;;;;;2.28;1.85;;;26.50;1.00;;;;;;5050312;28;20048;-67
2023/08/23 12:23:12;;;;;;;4.38;1.75;;;26.20;1.00;;;;;;5058594;28;20064;-68
2023/08/23 12:25:38;;;;;;;2.75;1.85;;;26.00;1.00;;;;;;5069028;28;20048;-68
2023/08/23 12:28:04;;;;;;;3.78;1.90;;;25.80;1.00;;;;;;5038107;28;20099;-68
2023/08/23 12:30:30;;;;;;;1.60;1.40;;;25.80;1.00;;;;;;5039307;28;20098;-68
2023/08/23 12:32:56;;;;;;;3.70;1.60;;;25.90;1.00;;;;;;5042220;28;20045;-68
2023/08/23 12:36:21;;;;;;;2.72;1.25;;;26.00;1.00;;;;;;5026519;28;20406;-68
2023/08/23 12:38:49;;;;;;;3.65;0.88;;;26.10;1.00;;;;;;5044176;28;20033;-68
2023/08/23 12:44:35;;;;;;;2.78;0.88;;;26.20;1.00;;;;;;5128162;23;20432;-68
2023/08/23 12:47:33;;;;;;;4.50;1.10;;;26.30;1.00;;;;;;5055779;28;20049;-67
2023/08/23 12:49:59;;;;;;;3.67;1.23;;;26.20;1.00;;;;;;5040845;28;20062;-68